4MI7 weather

Witbeck Aerodrone Airport
Farwell, Michigan, United States

Public forecast

Using degrees Fahrenheit for public forecast. Weather courtesy of forecast.io.

METAR (pilot weather report)

Closest report is Mount Pleasant Municipal Airport, 12.1 nm (22.4 km) SSE. Retrieved 2019/09/19 17:35 UTC (8 minutes ago):

KMOP 191735Z AUTO 15005KT 10SM CLR 25/14 A3014 RMK AO2 T02520138

TAF (pilot weather forecast)

Closest forecast is MBS International Airport, 36.4 nm (67.3 km) ESE. Retrieved 2019/09/19 12:22 UTC (5 hours ago):

TAF KMBS 191120Z 1912/2012 VRB03KT P6SM BKN250 FM191300 18007KT P6SM SCT250 FM192200 18005KT P6SM SCT050 FM200500 15005KT P6SM OVC050